Time,TemperatureF,DewpointF,PressureIn,WindDirection,WindDirectionDegrees,WindSpeedMPH,WindSpeedGustMPH,Humidity,HourlyPrecipIn,Conditions,Clouds,dailyrainin,SoftwareType,DateUTC
2013-07-09 00:00:00,79.0,71.0,-100.00,SSE,153,2.0,-999.0,78,0.00,,,0.00,,2013-07-09 05:00:00,
2013-07-09 00:42:00,79.0,71.0,-100.00,SSE,153,2.0,-999.0,78,0.00,,,0.00,,2013-07-09 05:42:00,
2013-07-09 00:52:00,79.0,71.0,-100.00,SSE,153,2.0,-999.0,78,0.00,,,0.00,,2013-07-09 05:52:00,
2013-07-09 01:00:00,77.0,71.0,-100.00,South,170,2.0,-999.0,82,0.00,,,0.00,,2013-07-09 06:00:00,
2013-07-09 01:43:00,77.0,71.0,-100.00,South,170,2.0,-999.0,82,0.00,,,0.00,,2013-07-09 06:43:00,
2013-07-09 01:53:00,77.0,71.0,-100.00,South,170,2.0,-999.0,82,0.00,,,0.00,,2013-07-09 06:53:00,
2013-07-09 02:00:00,74.0,70.0,-100.00,South,173,3.0,-999.0,89,0.00,,,0.00,,2013-07-09 07:00:00,
2013-07-09 02:43:00,74.0,70.0,-100.00,South,173,3.0,-999.0,89,0.00,,,0.00,,2013-07-09 07:43:00,
2013-07-09 02:53:00,74.0,70.0,-100.00,South,173,3.0,-999.0,89,0.00,,,0.00,,2013-07-09 07:53:00,
2013-07-09 04:00:00,74.0,71.0,-100.00,South,169,3.0,-999.0,90,0.00,,,0.00,,2013-07-09 09:00:00,
2013-07-09 04:42:00,74.0,71.0,-100.00,South,169,3.0,-999.0,90,0.00,,,0.00,,2013-07-09 09:42:00,
2013-07-09 04:53:00,74.0,71.0,-100.00,South,169,3.0,-999.0,90,0.00,,,0.00,,2013-07-09 09:53:00,
2013-07-09 05:00:00,73.0,71.0,-100.00,South,170,3.0,-999.0,93,0.00,,,0.00,,2013-07-09 10:00:00,
2013-07-09 05:42:00,73.0,71.0,-100.00,South,170,3.0,-999.0,93,0.00,,,0.00,,2013-07-09 10:42:00,
2013-07-09 05:52:00,73.0,71.0,-100.00,South,170,3.0,-999.0,93,0.00,,,0.00,,2013-07-09 10:52:00,
2013-07-09 06:00:00,73.0,70.0,-100.00,SSE,164,3.0,-999.0,93,0.00,,,0.00,,2013-07-09 11:00:00,
2013-07-09 06:42:00,73.0,70.0,-100.00,SSE,164,3.0,-999.0,93,0.00,,,0.00,,2013-07-09 11:42:00,
2013-07-09 06:53:00,73.0,70.0,-100.00,SSE,164,3.0,-999.0,93,0.00,,,0.00,,2013-07-09 11:53:00,
2013-07-09 07:00:00,71.0,70.0,-100.00,South,170,4.0,-999.0,97,0.00,,,0.00,,2013-07-09 12:00:00,
2013-07-09 07:43:00,71.0,70.0,-100.00,South,170,4.0,-999.0,97,0.00,,,0.00,,2013-07-09 12:43:00,
2013-07-09 07:52:00,71.0,70.0,-100.00,South,170,4.0,-999.0,97,0.00,,,0.00,,2013-07-09 12:52:00,
2013-07-09 08:00:00,75.0,72.0,-100.00,SSE,163,6.0,-999.0,91,0.00,,,0.00,,2013-07-09 13:00:00,
2013-07-09 08:43:00,75.0,72.0,-100.00,SSE,163,6.0,-999.0,91,0.00,,,0.00,,2013-07-09 13:43:00,
2013-07-09 08:53:00,75.0,72.0,-100.00,SSE,163,6.0,-999.0,91,0.00,,,0.00,,2013-07-09 13:53:00,
2013-07-09 09:00:00,81.0,73.0,-100.00,SSW,207,6.0,-999.0,78,0.00,,,0.00,,2013-07-09 14:00:00,
2013-07-09 09:43:00,81.0,73.0,-100.00,SSW,207,6.0,-999.0,78,0.00,,,0.00,,2013-07-09 14:43:00,
2013-07-09 09:53:00,81.0,73.0,-100.00,SSW,207,6.0,-999.0,78,0.00,,,0.00,,2013-07-09 14:53:00,
2013-07-09 10:00:00,84.0,73.0,-100.00,SSW,200,9.0,-999.0,68,0.00,,,0.00,,2013-07-09 15:00:00,
2013-07-09 10:43:00,84.0,73.0,-100.00,SSW,200,9.0,-999.0,68,0.00,,,0.00,,2013-07-09 15:43:00,
2013-07-09 10:52:00,84.0,73.0,-100.00,SSW,200,9.0,-999.0,68,0.00,,,0.00,,2013-07-09 15:52:00,
2013-07-09 11:00:00,87.0,71.0,-100.00,SW,218,9.0,-999.0,61,0.00,,,0.00,,2013-07-09 16:00:00,
2013-07-09 11:43:00,87.0,71.0,-100.00,SW,218,9.0,-999.0,61,0.00,,,0.00,,2013-07-09 16:43:00,
2013-07-09 11:53:00,87.0,71.0,-100.00,SW,218,9.0,-999.0,61,0.00,,,0.00,,2013-07-09 16:53:00,
2013-07-09 12:00:00,90.0,72.0,-100.00,SSW,212,8.0,-999.0,56,0.00,,,0.00,,2013-07-09 17:00:00,
2013-07-09 12:45:00,90.0,72.0,-100.00,SSW,212,8.0,-999.0,56,0.00,,,0.00,,2013-07-09 17:45:00,
2013-07-09 12:53:00,90.0,72.0,-100.00,SSW,212,8.0,-999.0,56,0.00,,,0.00,,2013-07-09 17:53:00,
2013-07-09 14:00:00,92.0,69.0,-100.00,SSW,206,11.0,-999.0,48,0.00,,,0.00,,2013-07-09 19:00:00,
2013-07-09 14:42:00,92.0,69.0,-100.00,SSW,206,11.0,-999.0,48,0.00,,,0.00,,2013-07-09 19:42:00,
2013-07-09 14:52:00,92.0,69.0,-100.00,SSW,206,11.0,-999.0,48,0.00,,,0.00,,2013-07-09 19:52:00,
2013-07-09 15:00:00,93.0,69.0,-100.00,SW,219,11.0,-999.0,45,0.00,,,0.00,,2013-07-09 20:00:00,
2013-07-09 15:43:00,93.0,69.0,-100.00,SW,219,11.0,-999.0,45,0.00,,,0.00,,2013-07-09 20:43:00,
2013-07-09 15:52:00,93.0,69.0,-100.00,SW,219,11.0,-999.0,45,0.00,,,0.00,,2013-07-09 20:52:00,
2013-07-09 16:00:00,95.0,67.0,-100.00,SSW,198,8.0,-999.0,41,0.00,,,0.00,,2013-07-09 21:00:00,
2013-07-09 16:42:00,95.0,67.0,-100.00,SSW,198,8.0,-999.0,41,0.00,,,0.00,,2013-07-09 21:42:00,
2013-07-09 16:52:00,95.0,67.0,-100.00,SSW,198,8.0,-999.0,41,0.00,,,0.00,,2013-07-09 21:52:00,
2013-07-09 17:00:00,96.0,68.0,-100.00,South,190,9.0,-999.0,41,0.00,,,0.00,,2013-07-09 22:00:00,
2013-07-09 17:42:00,96.0,68.0,-100.00,South,190,9.0,-999.0,41,0.00,,,0.00,,2013-07-09 22:42:00,
2013-07-09 17:53:00,96.0,68.0,-100.00,South,190,9.0,-999.0,41,0.00,,,0.00,,2013-07-09 22:53:00,
2013-07-09 18:00:00,95.0,68.0,-100.00,South,184,8.0,-999.0,41,0.00,,,0.00,,2013-07-09 23:00:00,
2013-07-09 18:43:00,95.0,68.0,-100.00,South,184,8.0,-999.0,41,0.00,,,0.00,,2013-07-09 23:43:00,
2013-07-09 18:53:00,95.0,68.0,-100.00,South,184,8.0,-999.0,41,0.00,,,0.00,,2013-07-09 23:53:00,
2013-07-09 20:00:00,92.0,69.0,-100.00,South,184,2.0,-999.0,47,0.00,,,0.00,,2013-07-10 01:00:00,
2013-07-09 20:43:00,92.0,69.0,-100.00,South,184,2.0,-999.0,47,0.00,,,0.00,,2013-07-10 01:43:00,
2013-07-09 20:53:00,92.0,69.0,-100.00,South,184,2.0,-999.0,47,0.00,,,0.00,,2013-07-10 01:53:00,
2013-07-09 21:00:00,84.0,71.0,-100.00,South,174,4.0,-999.0,65,0.00,,,0.00,,2013-07-10 02:00:00,
2013-07-09 21:43:00,84.0,71.0,-100.00,South,174,4.0,-999.0,65,0.00,,,0.00,,2013-07-10 02:43:00,
2013-07-09 21:53:00,84.0,71.0,-100.00,South,174,4.0,-999.0,65,0.00,,,0.00,,2013-07-10 02:53:00,
2013-07-09 22:00:00,84.0,70.0,-100.00,SE,137,2.0,-999.0,62,0.00,,,0.00,,2013-07-10 03:00:00,
2013-07-09 22:43:00,84.0,70.0,-100.00,SE,137,2.0,-999.0,62,0.00,,,0.00,,2013-07-10 03:43:00,
2013-07-09 22:52:00,84.0,70.0,-100.00,SE,137,2.0,-999.0,62,0.00,,,0.00,,2013-07-10 03:52:00,
2013-07-09 23:00:00,80.0,70.0,-100.00,SSE,160,2.0,-999.0,72,0.00,,,0.00,,2013-07-10 04:00:00,
2013-07-09 23:32:00,80.0,70.0,-100.00,SSE,160,2.0,-999.0,72,0.00,,,0.00,,2013-07-10 04:32:00,
2013-07-09 23:43:00,80.0,70.0,-100.00,SSE,160,2.0,-999.0,72,0.00,,,0.00,,2013-07-10 04:43:00,
2013-07-09 23:52:00,80.0,70.0,-100.00,SSE,160,2.0,-999.0,72,0.00,,,0.00,,2013-07-10 04:52:00,